sensor_id;sensor_type;location;lat;lon;timestamp;P1;durP1;ratioP1;P2;durP2;ratioP2
7479;SDS011;3781;42.272;22.658;2023-08-08T00:00:02;2.00;;;1.07;;
7479;SDS011;3781;42.272;22.658;2023-08-08T00:02:29;0.90;;;0.57;;
7479;SDS011;3781;42.272;22.658;2023-08-08T00:04:56;0.60;;;0.60;;
7479;SDS011;3781;42.272;22.658;2023-08-08T00:07:23;0.80;;;0.80;;
7479;SDS011;3781;42.272;22.658;2023-08-08T00:09:49;1.00;;;0.80;;
7479;SDS011;3781;42.272;22.658;2023-08-08T00:12:18;1.70;;;1.00;;
7479;SDS011;3781;42.272;22.658;2023-08-08T00:14:44;2.10;;;0.70;;
7479;SDS011;3781;42.272;22.658;2023-08-08T00:17:11;1.63;;;0.73;;
7479;SDS011;3781;42.272;22.658;2023-08-08T00:19:38;0.40;;;0.40;;
7479;SDS011;3781;42.272;22.658;2023-08-08T00:22:04;0.77;;;0.57;;
7479;SDS011;3781;42.272;22.658;2023-08-08T00:24:31;1.13;;;0.77;;
7479;SDS011;3781;42.272;22.658;2023-08-08T00:26:58;0.67;;;0.67;;
7479;SDS011;3781;42.272;22.658;2023-08-08T00:29:27;0.83;;;0.70;;
7479;SDS011;3781;42.272;22.658;2023-08-08T00:31:53;1.17;;;1.17;;
7479;SDS011;3781;42.272;22.658;2023-08-08T00:34:20;0.73;;;0.70;;
7479;SDS011;3781;42.272;22.658;2023-08-08T00:36:47;0.83;;;0.80;;
7479;SDS011;3781;42.272;22.658;2023-08-08T00:39:14;2.40;;;1.50;;
7479;SDS011;3781;42.272;22.658;2023-08-08T00:41:40;1.60;;;0.30;;
7479;SDS011;3781;42.272;22.658;2023-08-08T00:44:07;0.40;;;0.40;;
7479;SDS011;3781;42.272;22.658;2023-08-08T00:46:36;0.97;;;0.87;;
7479;SDS011;3781;42.272;22.658;2023-08-08T00:49:02;2.87;;;0.47;;
7479;SDS011;3781;42.272;22.658;2023-08-08T00:51:29;0.90;;;0.90;;
7479;SDS011;3781;42.272;22.658;2023-08-08T00:53:56;0.47;;;0.47;;
7479;SDS011;3781;42.272;22.658;2023-08-08T00:56:23;1.10;;;1.00;;
7479;SDS011;3781;42.272;22.658;2023-08-08T00:58:50;0.90;;;0.60;;
7479;SDS011;3781;42.272;22.658;2023-08-08T01:01:17;2.43;;;0.73;;
7479;SDS011;3781;42.272;22.658;2023-08-08T01:03:45;0.87;;;0.77;;
7479;SDS011;3781;42.272;22.658;2023-08-08T01:06:13;0.60;;;0.60;;
7479;SDS011;3781;42.272;22.658;2023-08-08T01:08:51;0.53;;;0.53;;
7479;SDS011;3781;42.272;22.658;2023-08-08T01:11:23;0.30;;;0.30;;
7479;SDS011;3781;42.272;22.658;2023-08-08T01:13:52;0.73;;;0.60;;
7479;SDS011;3781;42.272;22.658;2023-08-08T01:16:20;1.23;;;0.60;;
7479;SDS011;3781;42.272;22.658;2023-08-08T01:18:49;0.77;;;0.60;;
7479;SDS011;3781;42.272;22.658;2023-08-08T01:21:16;1.13;;;1.03;;
7479;SDS011;3781;42.272;22.658;2023-08-08T01:23:44;1.90;;;0.73;;
7479;SDS011;3781;42.272;22.658;2023-08-08T01:26:18;1.03;;;0.83;;
7479;SDS011;3781;42.272;22.658;2023-08-08T01:28:46;0.50;;;0.50;;
7479;SDS011;3781;42.272;22.658;2023-08-08T01:31:13;0.97;;;0.30;;
7479;SDS011;3781;42.272;22.658;2023-08-08T01:33:40;0.60;;;0.60;;
7479;SDS011;3781;42.272;22.658;2023-08-08T01:36:07;0.40;;;0.40;;
7479;SDS011;3781;42.272;22.658;2023-08-08T01:38:40;0.40;;;0.40;;
7479;SDS011;3781;42.272;22.658;2023-08-08T01:41:09;1.20;;;1.10;;
7479;SDS011;3781;42.272;22.658;2023-08-08T01:43:38;0.77;;;0.77;;
7479;SDS011;3781;42.272;22.658;2023-08-08T01:46:05;0.50;;;0.50;;
7479;SDS011;3781;42.272;22.658;2023-08-08T01:48:33;0.53;;;0.53;;
7479;SDS011;3781;42.272;22.658;2023-08-08T01:51:00;0.77;;;0.60;;
7479;SDS011;3781;42.272;22.658;2023-08-08T01:53:27;1.00;;;0.80;;
7479;SDS011;3781;42.272;22.658;2023-08-08T01:55:54;0.53;;;0.53;;
7479;SDS011;3781;42.272;22.658;2023-08-08T01:58:20;0.87;;;0.60;;
7479;SDS011;3781;42.272;22.658;2023-08-08T02:00:48;1.40;;;0.80;;
7479;SDS011;3781;42.272;22.658;2023-08-08T02:03:15;0.93;;;0.60;;
7479;SDS011;3781;42.272;22.658;2023-08-08T02:05:42;0.93;;;0.47;;
7479;SDS011;3781;42.272;22.658;2023-08-08T02:08:09;0.30;;;0.30;;
7479;SDS011;3781;42.272;22.658;2023-08-08T02:10:35;1.50;;;0.70;;
7479;SDS011;3781;42.272;22.658;2023-08-08T02:13:02;0.33;;;0.33;;
7479;SDS011;3781;42.272;22.658;2023-08-08T02:15:29;0.53;;;0.53;;
7479;SDS011;3781;42.272;22.658;2023-08-08T02:17:58;0.30;;;0.30;;
7479;SDS011;3781;42.272;22.658;2023-08-08T02:20:25;0.70;;;0.70;;
7479;SDS011;3781;42.272;22.658;2023-08-08T02:22:52;1.53;;;0.57;;
7479;SDS011;3781;42.272;22.658;2023-08-08T02:25:19;0.77;;;0.77;;
7479;SDS011;3781;42.272;22.658;2023-08-08T02:27:46;0.63;;;0.63;;
7479;SDS011;3781;42.272;22.658;2023-08-08T02:30:13;4.50;;;1.20;;
7479;SDS011;3781;42.272;22.658;2023-08-08T02:32:40;0.37;;;0.37;;
7479;SDS011;3781;42.272;22.658;2023-08-08T02:35:09;0.47;;;0.47;;
7479;SDS011;3781;42.272;22.658;2023-08-08T02:37:35;0.53;;;0.53;;
7479;SDS011;3781;42.272;22.658;2023-08-08T02:40:02;0.90;;;0.83;;
7479;SDS011;3781;42.272;22.658;2023-08-08T02:42:30;0.60;;;0.60;;
7479;SDS011;3781;42.272;22.658;2023-08-08T02:44:56;0.93;;;0.93;;
7479;SDS011;3781;42.272;22.658;2023-08-08T02:47:23;0.40;;;0.40;;
7479;SDS011;3781;42.272;22.658;2023-08-08T02:49:50;0.73;;;0.73;;
7479;SDS011;3781;42.272;22.658;2023-08-08T02:52:18;1.00;;;1.00;;
7479;SDS011;3781;42.272;22.658;2023-08-08T02:54:45;0.67;;;0.67;;
7479;SDS011;3781;42.272;22.658;2023-08-08T02:57:11;1.17;;;1.17;;
7479;SDS011;3781;42.272;22.658;2023-08-08T02:59:38;1.27;;;0.80;;
7479;SDS011;3781;42.272;22.658;2023-08-08T03:02:05;0.70;;;0.70;;
7479;SDS011;3781;42.272;22.658;2023-08-08T03:04:32;1.80;;;0.60;;
7479;SDS011;3781;42.272;22.658;2023-08-08T03:06:58;0.80;;;0.80;;
7479;SDS011;3781;42.272;22.658;2023-08-08T03:09:28;1.83;;;0.67;;
7479;SDS011;3781;42.272;22.658;2023-08-08T03:11:55;1.13;;;0.77;;
7479;SDS011;3781;42.272;22.658;2023-08-08T03:14:22;0.40;;;0.40;;
7479;SDS011;3781;42.272;22.658;2023-08-08T03:16:48;2.93;;;1.17;;
7479;SDS011;3781;42.272;22.658;2023-08-08T03:19:15;2.00;;;0.80;;
7479;SDS011;3781;42.272;22.658;2023-08-08T03:21:42;1.03;;;0.97;;
7479;SDS011;3781;42.272;22.658;2023-08-08T03:24:09;1.43;;;1.20;;
7479;SDS011;3781;42.272;22.658;2023-08-08T03:26:37;1.40;;;1.30;;
7479;SDS011;3781;42.272;22.658;2023-08-08T03:29:03;1.63;;;1.50;;
7479;SDS011;3781;42.272;22.658;2023-08-08T03:31:30;1.57;;;1.20;;
7479;SDS011;3781;42.272;22.658;2023-08-08T03:33:57;1.67;;;1.17;;
7479;SDS011;3781;42.272;22.658;2023-08-08T03:36:24;1.60;;;1.33;;
7479;SDS011;3781;42.272;22.658;2023-08-08T03:38:50;0.87;;;0.87;;
7479;SDS011;3781;42.272;22.658;2023-08-08T03:41:17;2.00;;;0.93;;
7479;SDS011;3781;42.272;22.658;2023-08-08T03:43:45;1.63;;;1.53;;
7479;SDS011;3781;42.272;22.658;2023-08-08T03:46:12;1.43;;;1.20;;
7479;SDS011;3781;42.272;22.658;2023-08-08T03:48:38;2.00;;;1.70;;
7479;SDS011;3781;42.272;22.658;2023-08-08T03:51:05;1.00;;;1.00;;
7479;SDS011;3781;42.272;22.658;2023-08-08T03:53:33;1.00;;;1.00;;
7479;SDS011;3781;42.272;22.658;2023-08-08T03:55:59;0.63;;;0.63;;
7479;SDS011;3781;42.272;22.658;2023-08-08T03:58:26;1.20;;;0.80;;
7479;SDS011;3781;42.272;22.658;2023-08-08T04:00:54;2.00;;;1.00;;
7479;SDS011;3781;42.272;22.658;2023-08-08T04:03:21;1.27;;;1.03;;
7479;SDS011;3781;42.272;22.658;2023-08-08T04:05:48;1.23;;;0.80;;
7479;SDS011;3781;42.272;22.658;2023-08-08T04:08:15;0.87;;;0.87;;
7479;SDS011;3781;42.272;22.658;2023-08-08T04:10:42;2.17;;;1.47;;
7479;SDS011;3781;42.272;22.658;2023-08-08T04:13:09;0.70;;;0.70;;
7479;SDS011;3781;42.272;22.658;2023-08-08T04:15:36;0.77;;;0.77;;
7479;SDS011;3781;42.272;22.658;2023-08-08T04:18:05;1.03;;;0.80;;
7479;SDS011;3781;42.272;22.658;2023-08-08T04:20:32;1.00;;;1.00;;
7479;SDS011;3781;42.272;22.658;2023-08-08T04:22:59;1.87;;;1.37;;
7479;SDS011;3781;42.272;22.658;2023-08-08T04:25:26;3.50;;;1.80;;
7479;SDS011;3781;42.272;22.658;2023-08-08T04:27:53;1.13;;;1.10;;
7479;SDS011;3781;42.272;22.658;2023-08-08T04:30:20;1.37;;;1.27;;
7479;SDS011;3781;42.272;22.658;2023-08-08T04:32:48;1.60;;;1.50;;
7479;SDS011;3781;42.272;22.658;2023-08-08T04:35:16;1.40;;;1.30;;
7479;SDS011;3781;42.272;22.658;2023-08-08T04:37:43;1.13;;;1.07;;
7479;SDS011;3781;42.272;22.658;2023-08-08T04:40:10;1.57;;;1.47;;
7479;SDS011;3781;42.272;22.658;2023-08-08T04:42:37;1.70;;;1.47;;
7479;SDS011;3781;42.272;22.658;2023-08-08T04:45:04;2.27;;;1.33;;
7479;SDS011;3781;42.272;22.658;2023-08-08T04:47:32;1.43;;;1.33;;
7479;SDS011;3781;42.272;22.658;2023-08-08T04:49:59;1.57;;;1.43;;
7479;SDS011;3781;42.272;22.658;2023-08-08T04:52:27;1.93;;;1.80;;
7479;SDS011;3781;42.272;22.658;2023-08-08T04:54:55;1.60;;;1.37;;
7479;SDS011;3781;42.272;22.658;2023-08-08T04:57:21;1.30;;;1.17;;
7479;SDS011;3781;42.272;22.658;2023-08-08T04:59:48;1.57;;;1.47;;
7479;SDS011;3781;42.272;22.658;2023-08-08T05:02:15;1.80;;;1.30;;
7479;SDS011;3781;42.272;22.658;2023-08-08T05:04:42;1.33;;;1.33;;
7479;SDS011;3781;42.272;22.658;2023-08-08T05:07:09;1.53;;;1.43;;
7479;SDS011;3781;42.272;22.658;2023-08-08T05:09:37;1.43;;;1.33;;
7479;SDS011;3781;42.272;22.658;2023-08-08T05:12:04;1.77;;;1.60;;
7479;SDS011;3781;42.272;22.658;2023-08-08T05:14:31;1.63;;;1.53;;
7479;SDS011;3781;42.272;22.658;2023-08-08T05:16:58;1.27;;;1.00;;
7479;SDS011;3781;42.272;22.658;2023-08-08T05:19:24;0.90;;;0.90;;
7479;SDS011;3781;42.272;22.658;2023-08-08T05:21:51;2.13;;;0.90;;
7479;SDS011;3781;42.272;22.658;2023-08-08T05:24:18;1.20;;;0.63;;
7479;SDS011;3781;42.272;22.658;2023-08-08T05:26:46;0.30;;;0.30;;
7479;SDS011;3781;42.272;22.658;2023-08-08T05:29:13;0.60;;;0.60;;
7479;SDS011;3781;42.272;22.658;2023-08-08T05:31:39;0.60;;;0.60;;
7479;SDS011;3781;42.272;22.658;2023-08-08T05:34:06;0.60;;;0.60;;
7479;SDS011;3781;42.272;22.658;2023-08-08T05:36:33;0.60;;;0.60;;
7479;SDS011;3781;42.272;22.658;2023-08-08T05:38:59;0.40;;;0.40;;
7479;SDS011;3781;42.272;22.658;2023-08-08T05:41:26;0.63;;;0.63;;
7479;SDS011;3781;42.272;22.658;2023-08-08T05:43:54;0.63;;;0.63;;
7479;SDS011;3781;42.272;22.658;2023-08-08T05:46:21;5.03;;;0.70;;
7479;SDS011;3781;42.272;22.658;2023-08-08T05:48:47;0.83;;;0.80;;
7479;SDS011;3781;42.272;22.658;2023-08-08T05:51:14;0.83;;;0.80;;
7479;SDS011;3781;42.272;22.658;2023-08-08T05:53:41;0.50;;;0.50;;
7479;SDS011;3781;42.272;22.658;2023-08-08T05:56:08;0.60;;;0.60;;
7479;SDS011;3781;42.272;22.658;2023-08-08T05:58:34;0.67;;;0.67;;
7479;SDS011;3781;42.272;22.658;2023-08-08T06:01:03;0.97;;;0.97;;
7479;SDS011;3781;42.272;22.658;2023-08-08T06:03:34;0.80;;;0.80;;
7479;SDS011;3781;42.272;22.658;2023-08-08T06:06:02;0.30;;;0.30;;
7479;SDS011;3781;42.272;22.658;2023-08-08T06:08:29;0.70;;;0.70;;
7479;SDS011;3781;42.272;22.658;2023-08-08T06:10:56;0.67;;;0.67;;
7479;SDS011;3781;42.272;22.658;2023-08-08T06:13:23;0.63;;;0.63;;
7479;SDS011;3781;42.272;22.658;2023-08-08T06:15:50;0.83;;;0.83;;
7479;SDS011;3781;42.272;22.658;2023-08-08T06:18:18;0.77;;;0.60;;
7479;SDS011;3781;42.272;22.658;2023-08-08T06:20:44;1.17;;;1.10;;
7479;SDS011;3781;42.272;22.658;2023-08-08T06:23:11;1.07;;;1.00;;
7479;SDS011;3781;42.272;22.658;2023-08-08T06:25:40;0.80;;;0.80;;
7479;SDS011;3781;42.272;22.658;2023-08-08T06:28:06;0.77;;;0.77;;
7479;SDS011;3781;42.272;22.658;2023-08-08T06:30:33;1.50;;;1.40;;
7479;SDS011;3781;42.272;22.658;2023-08-08T06:33:00;1.00;;;0.90;;
7479;SDS011;3781;42.272;22.658;2023-08-08T06:35:28;0.50;;;0.40;;
7479;SDS011;3781;42.272;22.658;2023-08-08T06:37:55;0.50;;;0.50;;
7479;SDS011;3781;42.272;22.658;2023-08-08T06:40:21;1.30;;;1.20;;
7479;SDS011;3781;42.272;22.658;2023-08-08T06:42:48;1.97;;;1.20;;
7479;SDS011;3781;42.272;22.658;2023-08-08T06:45:15;0.53;;;0.53;;
7479;SDS011;3781;42.272;22.658;2023-08-08T06:47:42;0.40;;;0.40;;
7479;SDS011;3781;42.272;22.658;2023-08-08T06:50:09;1.00;;;0.73;;
7479;SDS011;3781;42.272;22.658;2023-08-08T06:52:37;1.10;;;1.00;;
7479;SDS011;3781;42.272;22.658;2023-08-08T06:55:04;0.53;;;0.53;;
7479;SDS011;3781;42.272;22.658;2023-08-08T06:57:32;0.43;;;0.43;;
7479;SDS011;3781;42.272;22.658;2023-08-08T06:59:59;3.90;;;1.13;;
7479;SDS011;3781;42.272;22.658;2023-08-08T07:02:26;0.80;;;0.80;;
7479;SDS011;3781;42.272;22.658;2023-08-08T07:04:53;0.75;;;0.75;;
7479;SDS011;3781;42.272;22.658;2023-08-08T07:07:20;1.23;;;0.90;;
7479;SDS011;3781;42.272;22.658;2023-08-08T07:09:48;1.13;;;0.57;;
7479;SDS011;3781;42.272;22.658;2023-08-08T07:12:15;0.37;;;0.37;;
7479;SDS011;3781;42.272;22.658;2023-08-08T07:14:42;0.67;;;0.60;;
7479;SDS011;3781;42.272;22.658;2023-08-08T07:17:09;0.37;;;0.37;;
7479;SDS011;3781;42.272;22.658;2023-08-08T07:19:37;1.30;;;0.70;;
7479;SDS011;3781;42.272;22.658;2023-08-08T07:22:05;0.77;;;0.77;;
7479;SDS011;3781;42.272;22.658;2023-08-08T07:24:31;3.67;;;0.90;;
7479;SDS011;3781;42.272;22.658;2023-08-08T07:30:16;0.50;;;0.50;;
7479;SDS011;3781;42.272;22.658;2023-08-08T07:32:43;1.47;;;0.80;;
7479;SDS011;3781;42.272;22.658;2023-08-08T07:35:09;0.93;;;0.93;;
7479;SDS011;3781;42.272;22.658;2023-08-08T07:37:36;1.13;;;1.13;;
7479;SDS011;3781;42.272;22.658;2023-08-08T07:40:12;0.70;;;0.70;;
7479;SDS011;3781;42.272;22.658;2023-08-08T07:42:40;0.63;;;0.60;;
7479;SDS011;3781;42.272;22.658;2023-08-08T07:45:07;0.60;;;0.60;;
7479;SDS011;3781;42.272;22.658;2023-08-08T07:47:35;1.77;;;0.70;;
7479;SDS011;3781;42.272;22.658;2023-08-08T07:50:02;0.50;;;0.50;;
7479;SDS011;3781;42.272;22.658;2023-08-08T07:52:29;0.70;;;0.70;;
7479;SDS011;3781;42.272;22.658;2023-08-08T07:54:56;0.83;;;0.83;;
7479;SDS011;3781;42.272;22.658;2023-08-08T07:57:24;0.73;;;0.73;;
7479;SDS011;3781;42.272;22.658;2023-08-08T07:59:50;0.87;;;0.87;;
7479;SDS011;3781;42.272;22.658;2023-08-08T08:02:17;0.90;;;0.90;;
7479;SDS011;3781;42.272;22.658;2023-08-08T08:04:45;0.70;;;0.70;;
7479;SDS011;3781;42.272;22.658;2023-08-08T08:07:12;0.87;;;0.80;;
7479;SDS011;3781;42.272;22.658;2023-08-08T08:09:39;0.87;;;0.73;;
7479;SDS011;3781;42.272;22.658;2023-08-08T08:12:07;1.23;;;1.13;;
7479;SDS011;3781;42.272;22.658;2023-08-08T08:14:35;1.27;;;0.90;;
7479;SDS011;3781;42.272;22.658;2023-08-08T08:17:01;0.80;;;0.80;;
7479;SDS011;3781;42.272;22.658;2023-08-08T08:19:29;0.73;;;0.73;;
7479;SDS011;3781;42.272;22.658;2023-08-08T08:21:57;0.47;;;0.47;;
7479;SDS011;3781;42.272;22.658;2023-08-08T08:24:24;0.67;;;0.67;;
7479;SDS011;3781;42.272;22.658;2023-08-08T08:26:50;0.73;;;0.73;;
7479;SDS011;3781;42.272;22.658;2023-08-08T08:29:17;0.33;;;0.33;;
7479;SDS011;3781;42.272;22.658;2023-08-08T08:31:44;0.80;;;0.80;;
7479;SDS011;3781;42.272;22.658;2023-08-08T08:34:11;0.80;;;0.40;;
7479;SDS011;3781;42.272;22.658;2023-08-08T08:36:37;1.43;;;0.93;;
7479;SDS011;3781;42.272;22.658;2023-08-08T08:39:05;1.67;;;0.60;;
7479;SDS011;3781;42.272;22.658;2023-08-08T08:41:32;0.93;;;0.90;;
7479;SDS011;3781;42.272;22.658;2023-08-08T08:44:02;0.47;;;0.47;;
7479;SDS011;3781;42.272;22.658;2023-08-08T08:46:30;0.67;;;0.67;;
7479;SDS011;3781;42.272;22.658;2023-08-08T08:48:58;0.90;;;0.70;;
7479;SDS011;3781;42.272;22.658;2023-08-08T08:51:26;0.80;;;0.50;;
7479;SDS011;3781;42.272;22.658;2023-08-08T08:53:54;0.63;;;0.63;;
7479;SDS011;3781;42.272;22.658;2023-08-08T08:56:22;0.70;;;0.70;;
7479;SDS011;3781;42.272;22.658;2023-08-08T08:58:50;0.50;;;0.50;;
7479;SDS011;3781;42.272;22.658;2023-08-08T09:01:17;0.30;;;0.30;;
7479;SDS011;3781;42.272;22.658;2023-08-08T09:03:45;0.30;;;0.30;;
7479;SDS011;3781;42.272;22.658;2023-08-08T09:06:12;0.50;;;0.50;;
7479;SDS011;3781;42.272;22.658;2023-08-08T09:08:39;0.83;;;0.83;;
7479;SDS011;3781;42.272;22.658;2023-08-08T09:11:05;0.50;;;0.50;;
7479;SDS011;3781;42.272;22.658;2023-08-08T09:13:34;0.53;;;0.47;;
7479;SDS011;3781;42.272;22.658;2023-08-08T09:16:04;0.53;;;0.53;;
7479;SDS011;3781;42.272;22.658;2023-08-08T09:18:31;1.03;;;0.80;;
7479;SDS011;3781;42.272;22.658;2023-08-08T09:20:58;0.40;;;0.20;;
7479;SDS011;3781;42.272;22.658;2023-08-08T09:23:25;0.70;;;0.60;;
7479;SDS011;3781;42.272;22.658;2023-08-08T09:25:52;0.63;;;0.50;;
7479;SDS011;3781;42.272;22.658;2023-08-08T09:28:19;0.55;;;0.52;;
7479;SDS011;3781;42.272;22.658;2023-08-08T09:30:47;0.50;;;0.50;;
7479;SDS011;3781;42.272;22.658;2023-08-08T09:33:14;0.60;;;0.60;;
7479;SDS011;3781;42.272;22.658;2023-08-08T09:35:41;0.75;;;0.50;;
7479;SDS011;3781;42.272;22.658;2023-08-08T09:38:08;0.60;;;0.50;;
7479;SDS011;3781;42.272;22.658;2023-08-08T09:40:35;0.57;;;0.57;;
7479;SDS011;3781;42.272;22.658;2023-08-08T09:43:02;0.50;;;0.50;;
7479;SDS011;3781;42.272;22.658;2023-08-08T09:45:35;0.77;;;0.77;;
7479;SDS011;3781;42.272;22.658;2023-08-08T09:48:05;0.52;;;0.52;;
7479;SDS011;3781;42.272;22.658;2023-08-08T09:50:32;1.00;;;1.00;;
7479;SDS011;3781;42.272;22.658;2023-08-08T09:53:00;0.70;;;0.70;;
7479;SDS011;3781;42.272;22.658;2023-08-08T09:55:28;0.70;;;0.70;;
7479;SDS011;3781;42.272;22.658;2023-08-08T09:57:55;0.70;;;0.70;;
7479;SDS011;3781;42.272;22.658;2023-08-08T10:00:23;0.60;;;0.60;;
7479;SDS011;3781;42.272;22.658;2023-08-08T10:02:53;2.08;;;0.80;;
7479;SDS011;3781;42.272;22.658;2023-08-08T10:05:21;0.70;;;0.70;;
7479;SDS011;3781;42.272;22.658;2023-08-08T10:07:50;1.08;;;0.70;;
7479;SDS011;3781;42.272;22.658;2023-08-08T10:10:17;0.40;;;0.40;;
7479;SDS011;3781;42.272;22.658;2023-08-08T10:12:44;0.70;;;0.70;;
7479;SDS011;3781;42.272;22.658;2023-08-08T10:15:12;0.77;;;0.77;;
7479;SDS011;3781;42.272;22.658;2023-08-08T10:17:39;0.70;;;0.70;;
7479;SDS011;3781;42.272;22.658;2023-08-08T10:20:08;1.48;;;0.93;;
7479;SDS011;3781;42.272;22.658;2023-08-08T10:22:41;0.40;;;0.40;;
7479;SDS011;3781;42.272;22.658;2023-08-08T10:25:16;0.90;;;0.90;;
7479;SDS011;3781;42.272;22.658;2023-08-08T10:27:44;0.50;;;0.50;;
7479;SDS011;3781;42.272;22.658;2023-08-08T10:30:11;0.63;;;0.63;;
7479;SDS011;3781;42.272;22.658;2023-08-08T10:32:40;0.52;;;0.52;;
7479;SDS011;3781;42.272;22.658;2023-08-08T10:35:08;1.00;;;0.70;;
7479;SDS011;3781;42.272;22.658;2023-08-08T10:37:35;0.57;;;0.57;;
7479;SDS011;3781;42.272;22.658;2023-08-08T10:40:05;0.50;;;0.50;;
7479;SDS011;3781;42.272;22.658;2023-08-08T10:42:40;0.60;;;0.60;;
7479;SDS011;3781;42.272;22.658;2023-08-08T10:45:09;0.43;;;0.35;;
7479;SDS011;3781;42.272;22.658;2023-08-08T10:47:37;0.60;;;0.60;;
7479;SDS011;3781;42.272;22.658;2023-08-08T10:50:05;0.85;;;0.65;;
7479;SDS011;3781;42.272;22.658;2023-08-08T10:52:37;0.60;;;0.60;;
7479;SDS011;3781;42.272;22.658;2023-08-08T10:55:20;0.40;;;0.40;;
7479;SDS011;3781;42.272;22.658;2023-08-08T10:57:55;0.60;;;0.60;;
7479;SDS011;3781;42.272;22.658;2023-08-08T11:00:24;0.30;;;0.30;;
7479;SDS011;3781;42.272;22.658;2023-08-08T11:02:53;0.50;;;0.50;;
7479;SDS011;3781;42.272;22.658;2023-08-08T11:05:21;0.40;;;0.40;;
7479;SDS011;3781;42.272;22.658;2023-08-08T11:07:48;1.10;;;0.65;;
7479;SDS011;3781;42.272;22.658;2023-08-08T11:10:16;0.30;;;0.30;;
7479;SDS011;3781;42.272;22.658;2023-08-08T11:12:53;0.40;;;0.40;;
7479;SDS011;3781;42.272;22.658;2023-08-08T11:15:21;0.30;;;0.30;;
7479;SDS011;3781;42.272;22.658;2023-08-08T11:17:48;0.20;;;0.20;;
7479;SDS011;3781;42.272;22.658;2023-08-08T11:20:15;0.40;;;0.40;;
7479;SDS011;3781;42.272;22.658;2023-08-08T11:22:42;0.45;;;0.45;;
7479;SDS011;3781;42.272;22.658;2023-08-08T11:25:08;0.45;;;0.30;;
7479;SDS011;3781;42.272;22.658;2023-08-08T11:27:35;1.08;;;0.98;;
7479;SDS011;3781;42.272;22.658;2023-08-08T11:30:04;0.45;;;0.45;;
7479;SDS011;3781;42.272;22.658;2023-08-08T11:32:32;0.75;;;0.50;;
7479;SDS011;3781;42.272;22.658;2023-08-08T11:35:00;0.38;;;0.38;;
7479;SDS011;3781;42.272;22.658;2023-08-08T11:37:28;0.22;;;0.22;;
7479;SDS011;3781;42.272;22.658;2023-08-08T11:39:55;0.25;;;0.25;;
7479;SDS011;3781;42.272;22.658;2023-08-08T11:42:22;0.85;;;0.40;;
7479;SDS011;3781;42.272;22.658;2023-08-08T11:44:48;0.30;;;0.30;;
7479;SDS011;3781;42.272;22.658;2023-08-08T11:47:18;0.47;;;0.40;;
7479;SDS011;3781;42.272;22.658;2023-08-08T11:49:51;0.30;;;0.30;;
7479;SDS011;3781;42.272;22.658;2023-08-08T11:52:18;0.28;;;0.28;;
7479;SDS011;3781;42.272;22.658;2023-08-08T11:54:49;0.30;;;0.30;;
7479;SDS011;3781;42.272;22.658;2023-08-08T11:57:17;0.30;;;0.30;;
7479;SDS011;3781;42.272;22.658;2023-08-08T11:59:44;0.32;;;0.32;;
7479;SDS011;3781;42.272;22.658;2023-08-08T12:02:11;0.35;;;0.35;;
7479;SDS011;3781;42.272;22.658;2023-08-08T12:04:39;0.20;;;0.20;;
7479;SDS011;3781;42.272;22.658;2023-08-08T12:07:10;0.20;;;0.20;;
7479;SDS011;3781;42.272;22.658;2023-08-08T12:09:37;0.80;;;0.30;;
7479;SDS011;3781;42.272;22.658;2023-08-08T12:12:04;0.20;;;0.20;;
7479;SDS011;3781;42.272;22.658;2023-08-08T12:14:36;0.28;;;0.28;;
7479;SDS011;3781;42.272;22.658;2023-08-08T12:17:03;0.40;;;0.10;;
7479;SDS011;3781;42.272;22.658;2023-08-08T12:19:30;0.47;;;0.20;;
7479;SDS011;3781;42.272;22.658;2023-08-08T12:21:58;0.40;;;0.40;;
7479;SDS011;3781;42.272;22.658;2023-08-08T12:24:25;0.20;;;0.20;;
7479;SDS011;3781;42.272;22.658;2023-08-08T12:26:52;0.30;;;0.30;;
7479;SDS011;3781;42.272;22.658;2023-08-08T12:29:19;0.13;;;0.13;;
7479;SDS011;3781;42.272;22.658;2023-08-08T12:31:45;0.15;;;0.10;;
7479;SDS011;3781;42.272;22.658;2023-08-08T12:34:12;0.10;;;0.10;;
7479;SDS011;3781;42.272;22.658;2023-08-08T12:36:39;0.20;;;0.20;;
7479;SDS011;3781;42.272;22.658;2023-08-08T12:39:07;0.65;;;0.20;;
7479;SDS011;3781;42.272;22.658;2023-08-08T12:41:35;0.20;;;0.20;;
7479;SDS011;3781;42.272;22.658;2023-08-08T12:44:02;0.30;;;0.30;;
7479;SDS011;3781;42.272;22.658;2023-08-08T12:46:29;0.28;;;0.25;;
7479;SDS011;3781;42.272;22.658;2023-08-08T12:48:56;0.10;;;0.10;;
7479;SDS011;3781;42.272;22.658;2023-08-08T12:51:23;0.20;;;0.20;;
7479;SDS011;3781;42.272;22.658;2023-08-08T12:53:49;0.10;;;0.10;;
7479;SDS011;3781;42.272;22.658;2023-08-08T12:56:18;0.20;;;0.20;;
7479;SDS011;3781;42.272;22.658;2023-08-08T12:58:44;0.65;;;0.25;;
7479;SDS011;3781;42.272;22.658;2023-08-08T13:01:11;0.43;;;0.30;;
7479;SDS011;3781;42.272;22.658;2023-08-08T13:03:38;0.20;;;0.20;;
7479;SDS011;3781;42.272;22.658;2023-08-08T13:06:05;0.60;;;0.30;;
7479;SDS011;3781;42.272;22.658;2023-08-08T13:08:31;0.10;;;0.10;;
7479;SDS011;3781;42.272;22.658;2023-08-08T13:10:59;0.30;;;0.30;;
7479;SDS011;3781;42.272;22.658;2023-08-08T13:13:28;0.20;;;0.20;;
7479;SDS011;3781;42.272;22.658;2023-08-08T13:15:54;0.10;;;0.10;;
7479;SDS011;3781;42.272;22.658;2023-08-08T13:18:21;0.17;;;0.17;;
7479;SDS011;3781;42.272;22.658;2023-08-08T13:20:48;0.10;;;0.10;;
7479;SDS011;3781;42.272;22.658;2023-08-08T13:23:15;0.10;;;0.10;;
7479;SDS011;3781;42.272;22.658;2023-08-08T13:25:41;0.20;;;0.20;;
7479;SDS011;3781;42.272;22.658;2023-08-08T13:28:08;0.10;;;0.10;;
7479;SDS011;3781;42.272;22.658;2023-08-08T13:30:36;0.10;;;0.10;;
7479;SDS011;3781;42.272;22.658;2023-08-08T13:33:03;0.10;;;0.10;;
7479;SDS011;3781;42.272;22.658;2023-08-08T13:35:30;0.75;;;0.20;;
7479;SDS011;3781;42.272;22.658;2023-08-08T13:37:57;0.13;;;0.13;;
7479;SDS011;3781;42.272;22.658;2023-08-08T13:40:24;0.15;;;0.15;;
7479;SDS011;3781;42.272;22.658;2023-08-08T13:42:51;0.13;;;0.13;;
7479;SDS011;3781;42.272;22.658;2023-08-08T13:45:18;0.13;;;0.13;;
7479;SDS011;3781;42.272;22.658;2023-08-08T13:47:47;0.10;;;0.10;;
7479;SDS011;3781;42.272;22.658;2023-08-08T13:50:15;0.32;;;0.20;;
7479;SDS011;3781;42.272;22.658;2023-08-08T13:52:42;0.30;;;0.30;;
7479;SDS011;3781;42.272;22.658;2023-08-08T13:55:09;2.22;;;0.30;;
7479;SDS011;3781;42.272;22.658;2023-08-08T13:57:35;0.63;;;0.10;;
7479;SDS011;3781;42.272;22.658;2023-08-08T14:00:02;0.20;;;0.20;;
7479;SDS011;3781;42.272;22.658;2023-08-08T14:02:31;0.22;;;0.22;;
7479;SDS011;3781;42.272;22.658;2023-08-08T14:04:59;0.20;;;0.17;;
7479;SDS011;3781;42.272;22.658;2023-08-08T14:07:26;0.80;;;0.20;;
7479;SDS011;3781;42.272;22.658;2023-08-08T14:09:53;0.20;;;0.20;;
7479;SDS011;3781;42.272;22.658;2023-08-08T14:12:21;1.00;;;0.30;;
7479;SDS011;3781;42.272;22.658;2023-08-08T14:14:48;0.10;;;0.10;;
7479;SDS011;3781;42.272;22.658;2023-08-08T14:17:15;0.20;;;0.20;;
7479;SDS011;3781;42.272;22.658;2023-08-08T14:19:42;0.10;;;0.10;;
7479;SDS011;3781;42.272;22.658;2023-08-08T14:22:13;0.20;;;0.10;;
7479;SDS011;3781;42.272;22.658;2023-08-08T14:24:40;0.10;;;0.10;;
7479;SDS011;3781;42.272;22.658;2023-08-08T14:27:10;0.20;;;0.20;;
7479;SDS011;3781;42.272;22.658;2023-08-08T14:29:37;0.20;;;0.20;;
7479;SDS011;3781;42.272;22.658;2023-08-08T14:32:04;0.10;;;0.10;;
7479;SDS011;3781;42.272;22.658;2023-08-08T14:34:31;0.20;;;0.20;;
7479;SDS011;3781;42.272;22.658;2023-08-08T14:36:59;0.30;;;0.30;;
7479;SDS011;3781;42.272;22.658;2023-08-08T14:39:28;0.10;;;0.10;;
7479;SDS011;3781;42.272;22.658;2023-08-08T14:41:55;0.10;;;0.10;;
7479;SDS011;3781;42.272;22.658;2023-08-08T14:44:22;0.15;;;0.15;;
7479;SDS011;3781;42.272;22.658;2023-08-08T14:46:50;0.20;;;0.20;;
7479;SDS011;3781;42.272;22.658;2023-08-08T14:49:17;0.20;;;0.20;;
7479;SDS011;3781;42.272;22.658;2023-08-08T14:51:44;0.13;;;0.13;;
7479;SDS011;3781;42.272;22.658;2023-08-08T14:54:10;0.20;;;0.20;;
7479;SDS011;3781;42.272;22.658;2023-08-08T14:56:39;0.10;;;0.10;;
7479;SDS011;3781;42.272;22.658;2023-08-08T14:59:05;0.22;;;0.20;;
7479;SDS011;3781;42.272;22.658;2023-08-08T15:01:32;0.00;;;0.00;;
7479;SDS011;3781;42.272;22.658;2023-08-08T15:03:59;0.20;;;0.20;;